NSZ362D EKCH-LFMT
Flight info
| Callsign | NSZ362D |
|---|---|
| Flight time | 2h 10m |
| Altitude | 40000 |
| Route | NEXEN T503 MICOS DCT LNO DCT RASCA DCT FAMEN/N0457F390 DCT AHVEC DCT RESMI DCT DEKOD DCT DISAK/N0449F330 DCT DIRMO DCT ETAMO DCT ADEKA DCT MOKDI DCT MEN |
| Aircraft | B38M/M-SDE1FGHILORVWXY/HB1 |
Departure
| Time | 2026-05-08 09:45 |
|---|---|
| Airport | Copenhagen Kastrup Airport (EKCH) |
Arrival
| Time | 2026-05-08 11:56 |
|---|---|
| Airport | Montpellier-Méditerranée Airport (LFMT) |
| Time | Latitude | Longitude | Altitude | Speed | Heading |
|---|---|---|---|---|---|
| 2026-05-08 09:17 | 55.62699 | 12.64162 | 26 ft | 0 kts | 32° |
| 2026-05-08 09:36 | 55.62685 | 12.64146 | 26 ft | 5 kts | 32° |
| 2026-05-08 09:36 | 55.62654 | 12.64098 | 26 ft | 6 kts | 70° |
| 2026-05-08 09:36 | 55.62664 | 12.64027 | 26 ft | 6 kts | 122° |
| 2026-05-08 09:37 | 55.62680 | 12.63983 | 29 ft | 0 kts | 122° |
| 2026-05-08 09:42 | 55.62679 | 12.63986 | 26 ft | 1 kts | 122° |
| 2026-05-08 09:42 | 55.62660 | 12.64040 | 29 ft | 10 kts | 122° |
| 2026-05-08 09:42 | 55.62608 | 12.64181 | 26 ft | 14 kts | 125° |
| 2026-05-08 09:42 | 55.62513 | 12.64242 | 28 ft | 18 kts | 129° |
| 2026-05-08 09:43 | 55.62423 | 12.64433 | 26 ft | 21 kts | 153° |
| 2026-05-08 09:43 | 55.62268 | 12.64394 | 25 ft | 26 kts | 196° |
| 2026-05-08 09:43 | 55.62087 | 12.64249 | 27 ft | 31 kts | 205° |
| 2026-05-08 09:43 | 55.61898 | 12.64092 | 26 ft | 23 kts | 205° |
| 2026-05-08 09:44 | 55.61775 | 12.64079 | 27 ft | 13 kts | 177° |
| 2026-05-08 09:44 | 55.61746 | 12.64082 | 27 ft | 6 kts | 176° |
| 2026-05-08 09:44 | 55.61662 | 12.64090 | 29 ft | 16 kts | 185° |
| 2026-05-08 09:44 | 55.61534 | 12.63930 | 28 ft | 40 kts | 221° |
| 2026-05-08 09:45 | 55.61098 | 12.63254 | 29 ft | 123 kts | 221° |
| 2026-05-08 09:45 | 55.60319 | 12.62022 | 302 ft | 165 kts | 220° |
| 2026-05-08 09:45 | 55.59468 | 12.60623 | 1293 ft | 164 kts | 218° |
| 2026-05-08 09:45 | 55.58579 | 12.59279 | 2192 ft | 175 kts | 217° |
| 2026-05-08 09:46 | 55.57594 | 12.57804 | 2881 ft | 197 kts | 217° |
| 2026-05-08 09:46 | 55.56456 | 12.56199 | 3397 ft | 223 kts | 211° |
| 2026-05-08 09:46 | 55.55099 | 12.54543 | 4035 ft | 250 kts | 212° |
| 2026-05-08 09:46 | 55.53629 | 12.52745 | 4810 ft | 269 kts | 212° |
| 2026-05-08 09:47 | 55.52067 | 12.50832 | 5878 ft | 274 kts | 212° |
| 2026-05-08 09:47 | 55.50488 | 12.48899 | 7017 ft | 278 kts | 212° |
| 2026-05-08 09:47 | 55.48886 | 12.46939 | 8102 ft | 281 kts | 212° |
| 2026-05-08 09:47 | 55.47270 | 12.44962 | 9215 ft | 284 kts | 212° |
| 2026-05-08 09:48 | 55.45636 | 12.42965 | 10296 ft | 287 kts | 212° |
| 2026-05-08 09:48 | 55.43959 | 12.40917 | 11036 ft | 302 kts | 212° |
| 2026-05-08 09:48 | 55.42180 | 12.38745 | 11541 ft | 322 kts | 212° |
| 2026-05-08 09:48 | 55.40280 | 12.36430 | 12078 ft | 339 kts | 212° |
| 2026-05-08 09:49 | 55.38302 | 12.34023 | 12779 ft | 350 kts | 213° |
| 2026-05-08 09:49 | 55.36298 | 12.31588 | 13794 ft | 352 kts | 213° |
| 2026-05-08 09:49 | 55.34297 | 12.29159 | 14617 ft | 356 kts | 213° |
| 2026-05-08 09:49 | 55.32239 | 12.26665 | 15468 ft | 360 kts | 213° |
| 2026-05-08 09:50 | 55.30163 | 12.24152 | 16277 ft | 365 kts | 214° |
| 2026-05-08 09:50 | 55.28061 | 12.21611 | 17075 ft | 369 kts | 214° |
| 2026-05-08 09:50 | 55.25930 | 12.19037 | 17861 ft | 374 kts | 214° |
| 2026-05-08 09:50 | 55.23775 | 12.16439 | 18626 ft | 378 kts | 214° |
| 2026-05-08 09:51 | 55.21585 | 12.13802 | 19283 ft | 383 kts | 214° |
| 2026-05-08 09:51 | 55.19408 | 12.11064 | 19951 ft | 386 kts | 216° |
| 2026-05-08 09:51 | 55.17258 | 12.08292 | 20598 ft | 390 kts | 216° |
| 2026-05-08 09:51 | 55.15060 | 12.05478 | 21234 ft | 394 kts | 216° |
| 2026-05-08 09:52 | 55.12831 | 12.02630 | 21883 ft | 398 kts | 216° |
| 2026-05-08 09:52 | 55.10585 | 11.99765 | 22519 ft | 402 kts | 216° |
| 2026-05-08 09:52 | 55.08306 | 11.96864 | 23150 ft | 406 kts | 216° |
| 2026-05-08 09:52 | 55.06011 | 11.93947 | 23777 ft | 410 kts | 216° |
| 2026-05-08 09:53 | 55.03690 | 11.91001 | 24299 ft | 413 kts | 215° |
| 2026-05-08 09:53 | 55.01385 | 11.88080 | 24823 ft | 416 kts | 215° |
| 2026-05-08 09:53 | 54.99036 | 11.85107 | 25338 ft | 419 kts | 215° |
| 2026-05-08 09:53 | 54.96668 | 11.82116 | 25835 ft | 422 kts | 215° |
| 2026-05-08 09:54 | 54.94284 | 11.79107 | 26329 ft | 424 kts | 215° |
| 2026-05-08 09:54 | 54.91882 | 11.76082 | 26826 ft | 427 kts | 215° |
| 2026-05-08 09:54 | 54.89461 | 11.73037 | 27306 ft | 430 kts | 215° |
| 2026-05-08 09:54 | 54.87031 | 11.69984 | 27777 ft | 433 kts | 215° |
| 2026-05-08 09:55 | 54.84581 | 11.66911 | 28234 ft | 436 kts | 215° |
| 2026-05-08 09:55 | 54.82114 | 11.63820 | 28699 ft | 438 kts | 215° |
| 2026-05-08 09:55 | 54.79637 | 11.60720 | 29152 ft | 441 kts | 215° |
| 2026-05-08 09:55 | 54.77135 | 11.57592 | 29602 ft | 444 kts | 215° |
| 2026-05-08 09:56 | 54.74625 | 11.54459 | 30048 ft | 446 kts | 215° |
| 2026-05-08 09:56 | 54.72135 | 11.51355 | 30445 ft | 448 kts | 215° |
| 2026-05-08 09:56 | 54.69598 | 11.48198 | 30814 ft | 451 kts | 215° |
| 2026-05-08 09:56 | 54.67043 | 11.45024 | 31213 ft | 452 kts | 215° |
| 2026-05-08 09:57 | 54.61948 | 11.38708 | 32227 ft | 449 kts | 215° |
| 2026-05-08 09:57 | 54.59414 | 11.35574 | 32719 ft | 447 kts | 216° |
| 2026-05-08 09:57 | 54.56881 | 11.32447 | 33199 ft | 447 kts | 215° |
| 2026-05-08 09:58 | 54.54348 | 11.29354 | 33673 ft | 446 kts | 215° |
| 2026-05-08 09:58 | 54.51820 | 11.26273 | 34136 ft | 445 kts | 215° |
| 2026-05-08 09:58 | 54.49287 | 11.23190 | 34288 ft | 445 kts | 216° |
| 2026-05-08 09:58 | 54.46767 | 11.20126 | 34680 ft | 443 kts | 216° |
| 2026-05-08 09:59 | 54.44244 | 11.17062 | 35035 ft | 443 kts | 216° |
| 2026-05-08 09:59 | 54.41723 | 11.14007 | 35394 ft | 443 kts | 216° |
| 2026-05-08 09:59 | 54.39232 | 11.10991 | 35742 ft | 443 kts | 216° |
| 2026-05-08 09:59 | 54.36704 | 11.07938 | 36097 ft | 443 kts | 216° |
| 2026-05-08 10:00 | 54.34179 | 11.04891 | 36436 ft | 443 kts | 216° |
| 2026-05-08 10:00 | 54.31660 | 11.01853 | 36782 ft | 443 kts | 216° |
| 2026-05-08 10:00 | 54.29290 | 10.98477 | 37118 ft | 441 kts | 224° |
| 2026-05-08 10:00 | 54.27047 | 10.94890 | 37452 ft | 441 kts | 223° |
| 2026-05-08 10:01 | 54.24799 | 10.91315 | 37764 ft | 441 kts | 223° |
| 2026-05-08 10:01 | 54.22579 | 10.87780 | 38075 ft | 441 kts | 223° |
| 2026-05-08 10:01 | 54.20297 | 10.84148 | 38253 ft | 443 kts | 223° |
| 2026-05-08 10:01 | 54.18073 | 10.80613 | 38236 ft | 441 kts | 223° |
| 2026-05-08 10:02 | 54.13586 | 10.73497 | 38223 ft | 439 kts | 223° |
| 2026-05-08 10:02 | 54.09090 | 10.66390 | 38215 ft | 439 kts | 223° |
| 2026-05-08 10:03 | 54.04633 | 10.59364 | 38213 ft | 439 kts | 223° |
| 2026-05-08 10:03 | 54.00146 | 10.52315 | 38214 ft | 439 kts | 223° |
| 2026-05-08 10:04 | 53.95654 | 10.45277 | 38216 ft | 439 kts | 223° |
| 2026-05-08 10:04 | 53.91152 | 10.38246 | 38208 ft | 439 kts | 223° |
| 2026-05-08 10:05 | 53.86644 | 10.31226 | 38208 ft | 439 kts | 223° |
| 2026-05-08 10:05 | 53.82162 | 10.24270 | 38206 ft | 439 kts | 223° |
| 2026-05-08 10:06 | 53.77651 | 10.17290 | 38207 ft | 439 kts | 223° |
| 2026-05-08 10:06 | 53.73126 | 10.10309 | 38207 ft | 439 kts | 223° |
| 2026-05-08 10:07 | 53.68604 | 10.03354 | 38213 ft | 440 kts | 223° |
| 2026-05-08 10:07 | 53.64079 | 9.96415 | 38214 ft | 439 kts | 223° |
| 2026-05-08 10:08 | 53.59548 | 9.89488 | 38211 ft | 439 kts | 223° |
| 2026-05-08 10:08 | 53.55042 | 9.82620 | 38212 ft | 439 kts | 223° |
| 2026-05-08 10:09 | 53.50509 | 9.75731 | 38211 ft | 439 kts | 223° |
| 2026-05-08 10:09 | 53.46736 | 9.70015 | 38214 ft | 439 kts | 223° |
| 2026-05-08 10:10 | 53.42194 | 9.63150 | 38204 ft | 439 kts | 223° |
| 2026-05-08 10:10 | 53.37653 | 9.56308 | 38194 ft | 439 kts | 223° |
| 2026-05-08 10:11 | 53.33100 | 9.49470 | 38192 ft | 439 kts | 223° |
| 2026-05-08 10:11 | 53.28573 | 9.42690 | 38180 ft | 439 kts | 223° |
| 2026-05-08 10:12 | 53.24019 | 9.35889 | 38182 ft | 439 kts | 223° |
| 2026-05-08 10:12 | 53.19463 | 9.29106 | 38178 ft | 439 kts | 223° |
| 2026-05-08 10:13 | 53.14904 | 9.22338 | 38185 ft | 439 kts | 223° |
| 2026-05-08 10:13 | 53.10340 | 9.15584 | 38184 ft | 438 kts | 222° |
| 2026-05-08 10:14 | 53.05771 | 9.08841 | 38179 ft | 438 kts | 222° |
| 2026-05-08 10:14 | 53.01203 | 9.02120 | 38180 ft | 438 kts | 222° |
| 2026-05-08 10:15 | 52.96660 | 8.95455 | 38183 ft | 438 kts | 222° |
| 2026-05-08 10:15 | 52.92078 | 8.88753 | 38179 ft | 438 kts | 222° |
| 2026-05-08 10:16 | 52.87492 | 8.82066 | 38175 ft | 438 kts | 222° |
| 2026-05-08 10:16 | 52.82909 | 8.75401 | 38172 ft | 438 kts | 222° |
| 2026-05-08 10:17 | 52.78348 | 8.68787 | 38173 ft | 439 kts | 222° |
| 2026-05-08 10:17 | 52.73742 | 8.62130 | 38177 ft | 439 kts | 222° |
| 2026-05-08 10:18 | 52.69175 | 8.55547 | 38180 ft | 439 kts | 222° |
| 2026-05-08 10:18 | 52.64568 | 8.48924 | 38184 ft | 439 kts | 222° |
| 2026-05-08 10:19 | 52.59958 | 8.42317 | 38181 ft | 439 kts | 222° |
| 2026-05-08 10:20 | 52.53030 | 8.32423 | 38187 ft | 439 kts | 221° |
| 2026-05-08 10:20 | 52.48439 | 8.25892 | 38181 ft | 439 kts | 221° |
| 2026-05-08 10:21 | 52.43818 | 8.19337 | 38177 ft | 440 kts | 221° |
| 2026-05-08 10:21 | 52.39187 | 8.12785 | 38168 ft | 440 kts | 221° |
| 2026-05-08 10:22 | 52.34548 | 8.06241 | 38166 ft | 440 kts | 221° |
| 2026-05-08 10:22 | 52.29903 | 7.99708 | 38157 ft | 440 kts | 221° |
| 2026-05-08 10:23 | 52.25258 | 7.93193 | 38157 ft | 440 kts | 221° |
| 2026-05-08 10:23 | 52.20605 | 7.86687 | 38150 ft | 440 kts | 221° |
| 2026-05-08 10:24 | 52.15981 | 7.80239 | 38157 ft | 440 kts | 221° |
| 2026-05-08 10:24 | 52.11311 | 7.73745 | 38156 ft | 440 kts | 221° |
| 2026-05-08 10:25 | 52.06649 | 7.67281 | 38157 ft | 440 kts | 221° |
| 2026-05-08 10:25 | 52.01996 | 7.60848 | 38154 ft | 440 kts | 221° |
| 2026-05-08 10:26 | 51.97317 | 7.54396 | 38157 ft | 441 kts | 221° |
| 2026-05-08 10:26 | 51.92634 | 7.47958 | 38144 ft | 441 kts | 221° |
| 2026-05-08 10:27 | 51.87978 | 7.41576 | 38141 ft | 441 kts | 221° |
| 2026-05-08 10:27 | 51.83284 | 7.35159 | 38132 ft | 441 kts | 221° |
| 2026-05-08 10:28 | 51.78573 | 7.28737 | 38132 ft | 441 kts | 221° |
| 2026-05-08 10:28 | 51.73899 | 7.22383 | 38128 ft | 442 kts | 221° |
| 2026-05-08 10:29 | 51.69186 | 7.15995 | 38132 ft | 442 kts | 221° |
| 2026-05-08 10:29 | 51.64463 | 7.09610 | 38122 ft | 442 kts | 221° |
| 2026-05-08 10:30 | 51.59750 | 7.03258 | 38129 ft | 442 kts | 220° |
| 2026-05-08 10:30 | 51.55062 | 6.96956 | 38128 ft | 442 kts | 220° |
| 2026-05-08 10:31 | 51.50336 | 6.90622 | 38129 ft | 442 kts | 220° |
| 2026-05-08 10:31 | 51.45603 | 6.84296 | 38124 ft | 442 kts | 220° |
| 2026-05-08 10:32 | 51.40890 | 6.78014 | 38130 ft | 442 kts | 220° |
| 2026-05-08 10:32 | 51.36146 | 6.71707 | 38129 ft | 442 kts | 220° |
| 2026-05-08 10:33 | 51.31403 | 6.65420 | 38133 ft | 443 kts | 220° |
| 2026-05-08 10:33 | 51.26652 | 6.59141 | 38127 ft | 443 kts | 220° |
| 2026-05-08 10:34 | 51.21903 | 6.52880 | 38130 ft | 443 kts | 220° |
| 2026-05-08 10:34 | 51.17175 | 6.46664 | 38132 ft | 443 kts | 220° |
| 2026-05-08 10:35 | 51.12412 | 6.40420 | 38130 ft | 443 kts | 220° |
| 2026-05-08 10:35 | 51.07646 | 6.34190 | 38127 ft | 443 kts | 220° |
| 2026-05-08 10:36 | 51.02867 | 6.27960 | 38127 ft | 443 kts | 220° |
| 2026-05-08 10:36 | 50.98096 | 6.21756 | 38127 ft | 443 kts | 220° |
| 2026-05-08 10:37 | 50.93348 | 6.15597 | 38132 ft | 443 kts | 220° |
| 2026-05-08 10:37 | 50.88565 | 6.09408 | 38123 ft | 443 kts | 220° |
| 2026-05-08 10:38 | 50.83789 | 6.03245 | 38130 ft | 443 kts | 220° |
| 2026-05-08 10:38 | 50.79000 | 5.97081 | 38107 ft | 443 kts | 220° |
| 2026-05-08 10:39 | 50.74208 | 5.90930 | 38103 ft | 443 kts | 220° |
| 2026-05-08 10:39 | 50.69445 | 5.84833 | 38101 ft | 443 kts | 220° |
| 2026-05-08 10:40 | 50.64650 | 5.78709 | 38098 ft | 443 kts | 220° |
| 2026-05-08 10:40 | 50.59845 | 5.72590 | 38098 ft | 443 kts | 220° |
| 2026-05-08 10:40 | 50.57648 | 5.69199 | 38096 ft | 441 kts | 232° |
| 2026-05-08 10:41 | 50.55706 | 5.65449 | 38093 ft | 442 kts | 231° |
| 2026-05-08 10:41 | 50.51792 | 5.58052 | 38101 ft | 443 kts | 231° |
| 2026-05-08 10:42 | 50.47866 | 5.50592 | 38100 ft | 442 kts | 231° |
| 2026-05-08 10:42 | 50.43940 | 5.43148 | 38096 ft | 442 kts | 231° |
| 2026-05-08 10:43 | 50.40012 | 5.35721 | 38102 ft | 442 kts | 231° |
| 2026-05-08 10:43 | 50.36071 | 5.28290 | 38094 ft | 443 kts | 231° |
| 2026-05-08 10:44 | 50.32154 | 5.20924 | 38097 ft | 442 kts | 231° |
| 2026-05-08 10:44 | 50.28202 | 5.13515 | 38087 ft | 443 kts | 231° |
| 2026-05-08 10:45 | 50.24253 | 5.06131 | 38087 ft | 442 kts | 231° |
| 2026-05-08 10:45 | 50.20296 | 4.98756 | 38090 ft | 442 kts | 231° |
| 2026-05-08 10:46 | 50.16356 | 4.91427 | 38089 ft | 443 kts | 230° |
| 2026-05-08 10:46 | 50.12388 | 4.84076 | 38085 ft | 443 kts | 230° |
| 2026-05-08 10:47 | 50.08415 | 4.76733 | 38084 ft | 443 kts | 230° |
| 2026-05-08 10:47 | 50.04461 | 4.69448 | 38083 ft | 443 kts | 230° |
| 2026-05-08 10:48 | 50.00547 | 4.62253 | 38083 ft | 443 kts | 230° |
| 2026-05-08 10:48 | 49.96461 | 4.55084 | 38083 ft | 443 kts | 226° |
| 2026-05-08 10:49 | 49.92187 | 4.48171 | 38083 ft | 443 kts | 227° |
| 2026-05-08 10:49 | 49.87931 | 4.41235 | 38080 ft | 443 kts | 227° |
| 2026-05-08 10:50 | 49.83701 | 4.34354 | 38083 ft | 443 kts | 227° |
| 2026-05-08 10:50 | 49.79445 | 4.27449 | 38077 ft | 443 kts | 227° |
| 2026-05-08 10:51 | 49.75179 | 4.20546 | 38079 ft | 443 kts | 227° |
| 2026-05-08 10:51 | 49.70910 | 4.13657 | 38074 ft | 443 kts | 227° |
| 2026-05-08 10:52 | 49.66667 | 4.06829 | 38078 ft | 443 kts | 227° |
| 2026-05-08 10:52 | 49.62395 | 3.99971 | 38072 ft | 443 kts | 227° |
| 2026-05-08 10:53 | 49.58113 | 3.93118 | 38068 ft | 443 kts | 227° |
| 2026-05-08 10:53 | 49.53833 | 3.86285 | 38066 ft | 443 kts | 226° |
| 2026-05-08 10:54 | 49.49547 | 3.79461 | 38071 ft | 443 kts | 226° |
| 2026-05-08 10:54 | 49.45261 | 3.72655 | 38065 ft | 443 kts | 226° |
| 2026-05-08 10:55 | 49.40971 | 3.65862 | 38065 ft | 443 kts | 226° |
| 2026-05-08 10:55 | 49.36677 | 3.59080 | 38060 ft | 443 kts | 226° |
| 2026-05-08 10:56 | 49.32404 | 3.52349 | 38065 ft | 443 kts | 226° |
| 2026-05-08 10:56 | 49.28101 | 3.45590 | 38062 ft | 442 kts | 226° |
| 2026-05-08 10:57 | 49.24522 | 3.39981 | 38062 ft | 442 kts | 226° |
| 2026-05-08 10:57 | 49.18083 | 3.29921 | 38062 ft | 442 kts | 226° |
| 2026-05-08 10:58 | 49.13772 | 3.23208 | 38062 ft | 442 kts | 226° |
| 2026-05-08 10:58 | 49.09451 | 3.16498 | 38065 ft | 442 kts | 226° |
| 2026-05-08 10:59 | 49.05169 | 3.09865 | 38064 ft | 441 kts | 226° |
| 2026-05-08 10:59 | 49.00852 | 3.03195 | 38062 ft | 441 kts | 226° |
| 2026-05-08 11:00 | 48.97269 | 2.97673 | 38065 ft | 441 kts | 226° |
| 2026-05-08 11:00 | 48.95285 | 2.94621 | 38066 ft | 441 kts | 226° |
| 2026-05-08 11:01 | 48.90969 | 2.87990 | 38070 ft | 440 kts | 226° |
| 2026-05-08 11:01 | 48.86673 | 2.81405 | 38069 ft | 440 kts | 226° |
| 2026-05-08 11:02 | 48.80608 | 2.71019 | 38079 ft | 438 kts | 236° |
| 2026-05-08 11:03 | 48.77133 | 2.63404 | 38071 ft | 439 kts | 236° |
| 2026-05-08 11:03 | 48.73682 | 2.55833 | 38072 ft | 439 kts | 236° |
| 2026-05-08 11:04 | 48.70211 | 2.48233 | 38071 ft | 438 kts | 236° |
| 2026-05-08 11:04 | 48.66733 | 2.40638 | 38074 ft | 438 kts | 236° |
| 2026-05-08 11:05 | 48.63260 | 2.33074 | 38070 ft | 438 kts | 236° |
| 2026-05-08 11:05 | 48.59775 | 2.25504 | 38071 ft | 438 kts | 235° |
| 2026-05-08 11:05 | 48.57775 | 2.22016 | 38056 ft | 438 kts | 221° |
| 2026-05-08 11:06 | 48.55260 | 2.19530 | 38065 ft | 439 kts | 205° |
| 2026-05-08 11:06 | 48.49355 | 2.16926 | 38056 ft | 444 kts | 195° |
| 2026-05-08 11:07 | 48.43321 | 2.14845 | 38043 ft | 445 kts | 194° |
| 2026-05-08 11:07 | 48.37273 | 2.12872 | 38050 ft | 445 kts | 194° |
| 2026-05-08 11:08 | 48.31248 | 2.10934 | 38039 ft | 444 kts | 194° |
| 2026-05-08 11:08 | 48.28176 | 2.10345 | 38026 ft | 447 kts | 180° |
| 2026-05-08 11:08 | 48.25072 | 2.10836 | 38047 ft | 449 kts | 175° |
| 2026-05-08 11:09 | 48.18856 | 2.12030 | 38037 ft | 450 kts | 174° |
| 2026-05-08 11:09 | 48.12630 | 2.13174 | 38038 ft | 448 kts | 180° |
| 2026-05-08 11:10 | 48.06419 | 2.13571 | 38038 ft | 449 kts | 180° |
| 2026-05-08 11:10 | 48.00164 | 2.13944 | 38041 ft | 449 kts | 180° |
| 2026-05-08 11:11 | 47.93961 | 2.14309 | 38052 ft | 449 kts | 180° |
| 2026-05-08 11:11 | 47.87709 | 2.14675 | 38042 ft | 449 kts | 180° |
| 2026-05-08 11:12 | 47.81453 | 2.15041 | 38040 ft | 449 kts | 180° |
| 2026-05-08 11:12 | 47.75201 | 2.15406 | 38040 ft | 449 kts | 180° |
| 2026-05-08 11:13 | 47.68986 | 2.15768 | 38027 ft | 449 kts | 180° |
| 2026-05-08 11:13 | 47.62736 | 2.16131 | 38026 ft | 450 kts | 180° |
| 2026-05-08 11:14 | 47.56478 | 2.16494 | 38010 ft | 449 kts | 180° |
| 2026-05-08 11:14 | 47.50226 | 2.16855 | 38012 ft | 450 kts | 180° |
| 2026-05-08 11:15 | 47.44008 | 2.17214 | 38006 ft | 450 kts | 180° |
| 2026-05-08 11:15 | 47.37742 | 2.17575 | 38004 ft | 450 kts | 181° |
| 2026-05-08 11:16 | 47.31480 | 2.17934 | 38001 ft | 450 kts | 181° |
| 2026-05-08 11:16 | 47.25218 | 2.18293 | 38000 ft | 450 kts | 181° |
| 2026-05-08 11:17 | 47.18961 | 2.18650 | 37993 ft | 450 kts | 181° |
| 2026-05-08 11:17 | 47.12697 | 2.19007 | 38001 ft | 450 kts | 181° |
| 2026-05-08 11:18 | 47.06556 | 2.20726 | 38011 ft | 457 kts | 161° |
| 2026-05-08 11:18 | 47.00643 | 2.24100 | 38003 ft | 459 kts | 162° |
| 2026-05-08 11:19 | 46.94689 | 2.27547 | 37818 ft | 460 kts | 162° |
| 2026-05-08 11:19 | 46.88712 | 2.31027 | 38022 ft | 465 kts | 162° |
| 2026-05-08 11:20 | 46.82743 | 2.34954 | 37994 ft | 476 kts | 149° |
| 2026-05-08 11:20 | 46.77196 | 2.40289 | 37999 ft | 477 kts | 150° |
| 2026-05-08 11:21 | 46.71661 | 2.45546 | 37990 ft | 477 kts | 150° |
| 2026-05-08 11:21 | 46.66093 | 2.50835 | 37995 ft | 478 kts | 150° |
| 2026-05-08 11:22 | 46.60516 | 2.56119 | 37992 ft | 478 kts | 150° |
| 2026-05-08 11:22 | 46.54934 | 2.61396 | 37985 ft | 478 kts | 150° |
| 2026-05-08 11:23 | 46.49393 | 2.66621 | 37987 ft | 478 kts | 150° |
| 2026-05-08 11:23 | 46.43808 | 2.71874 | 37992 ft | 478 kts | 150° |
| 2026-05-08 11:24 | 46.38216 | 2.77120 | 37985 ft | 478 kts | 150° |
| 2026-05-08 11:24 | 46.32629 | 2.82349 | 37992 ft | 478 kts | 150° |
| 2026-05-08 11:25 | 46.27071 | 2.87539 | 37990 ft | 478 kts | 150° |
| 2026-05-08 11:25 | 46.21472 | 2.92753 | 37988 ft | 478 kts | 150° |
| 2026-05-08 11:26 | 46.15870 | 2.97958 | 37983 ft | 478 kts | 151° |
| 2026-05-08 11:26 | 46.10301 | 3.03119 | 37994 ft | 478 kts | 151° |
| 2026-05-08 11:27 | 46.04697 | 3.08300 | 37990 ft | 478 kts | 151° |
| 2026-05-08 11:27 | 45.99089 | 3.13474 | 37993 ft | 478 kts | 151° |
| 2026-05-08 11:28 | 45.93153 | 3.17375 | 37980 ft | 461 kts | 176° |
| 2026-05-08 11:28 | 45.86797 | 3.17785 | 37983 ft | 457 kts | 184° |
| 2026-05-08 11:29 | 45.80468 | 3.17803 | 37996 ft | 457 kts | 185° |
| 2026-05-08 11:29 | 45.74113 | 3.17736 | 37995 ft | 456 kts | 185° |
| 2026-05-08 11:30 | 45.67769 | 3.17652 | 37999 ft | 455 kts | 186° |
| 2026-05-08 11:30 | 45.61435 | 3.17567 | 37984 ft | 454 kts | 186° |
| 2026-05-08 11:31 | 45.55149 | 3.17483 | 37992 ft | 454 kts | 186° |
| 2026-05-08 11:31 | 45.48816 | 3.17399 | 37992 ft | 453 kts | 186° |
| 2026-05-08 11:32 | 45.42508 | 3.17315 | 37990 ft | 452 kts | 186° |
| 2026-05-08 11:32 | 45.36260 | 3.17232 | 37998 ft | 452 kts | 186° |
| 2026-05-08 11:33 | 45.29966 | 3.17148 | 37985 ft | 451 kts | 186° |
| 2026-05-08 11:33 | 45.23684 | 3.17065 | 37990 ft | 450 kts | 186° |
| 2026-05-08 11:34 | 45.17464 | 3.16983 | 37727 ft | 446 kts | 186° |
| 2026-05-08 11:34 | 45.14341 | 3.16942 | 36722 ft | 451 kts | 186° |
| 2026-05-08 11:34 | 45.11176 | 3.16900 | 35812 ft | 456 kts | 186° |
| 2026-05-08 11:34 | 45.08001 | 3.16859 | 35143 ft | 455 kts | 186° |
| 2026-05-08 11:35 | 45.04838 | 3.16817 | 34514 ft | 453 kts | 186° |
| 2026-05-08 11:35 | 45.01678 | 3.16776 | 33737 ft | 455 kts | 186° |
| 2026-05-08 11:35 | 44.98541 | 3.16736 | 32872 ft | 457 kts | 186° |
| 2026-05-08 11:35 | 44.95358 | 3.16694 | 32067 ft | 458 kts | 186° |
| 2026-05-08 11:36 | 44.92168 | 3.16651 | 31395 ft | 456 kts | 185° |
| 2026-05-08 11:36 | 44.88979 | 3.16609 | 30876 ft | 459 kts | 185° |
| 2026-05-08 11:36 | 44.85772 | 3.16567 | 30338 ft | 461 kts | 185° |
| 2026-05-08 11:36 | 44.82579 | 3.16526 | 29677 ft | 457 kts | 185° |
| 2026-05-08 11:37 | 44.79406 | 3.16485 | 29029 ft | 453 kts | 185° |
| 2026-05-08 11:37 | 44.76266 | 3.16444 | 28447 ft | 448 kts | 185° |
| 2026-05-08 11:37 | 44.73205 | 3.16404 | 27888 ft | 443 kts | 185° |
| 2026-05-08 11:37 | 44.70133 | 3.16364 | 27320 ft | 439 kts | 184° |
| 2026-05-08 11:38 | 44.67095 | 3.16325 | 26755 ft | 435 kts | 184° |
| 2026-05-08 11:38 | 44.64077 | 3.16285 | 26197 ft | 431 kts | 184° |
| 2026-05-08 11:38 | 44.61079 | 3.16294 | 25612 ft | 430 kts | 179° |
| 2026-05-08 11:38 | 44.58116 | 3.17007 | 24992 ft | 432 kts | 171° |
| 2026-05-08 11:39 | 44.55190 | 3.17822 | 24471 ft | 427 kts | 171° |
| 2026-05-08 11:39 | 44.52269 | 3.18629 | 23955 ft | 425 kts | 171° |
| 2026-05-08 11:39 | 44.49375 | 3.19431 | 23384 ft | 423 kts | 171° |
| 2026-05-08 11:39 | 44.46488 | 3.20231 | 22770 ft | 420 kts | 171° |
| 2026-05-08 11:40 | 44.43666 | 3.21013 | 22244 ft | 416 kts | 171° |
| 2026-05-08 11:40 | 44.40838 | 3.21796 | 21742 ft | 411 kts | 171° |
| 2026-05-08 11:40 | 44.38047 | 3.22568 | 21241 ft | 406 kts | 171° |
| 2026-05-08 11:40 | 44.35291 | 3.23329 | 20760 ft | 402 kts | 171° |
| 2026-05-08 11:41 | 44.32556 | 3.24085 | 20277 ft | 398 kts | 171° |
| 2026-05-08 11:41 | 44.29850 | 3.24832 | 19798 ft | 394 kts | 171° |
| 2026-05-08 11:41 | 44.27176 | 3.25568 | 19339 ft | 390 kts | 170° |
| 2026-05-08 11:41 | 44.24520 | 3.26300 | 18789 ft | 388 kts | 170° |
| 2026-05-08 11:42 | 44.21911 | 3.27018 | 18315 ft | 385 kts | 170° |
| 2026-05-08 11:42 | 44.19295 | 3.27737 | 17756 ft | 381 kts | 170° |
| 2026-05-08 11:42 | 44.16673 | 3.28458 | 17214 ft | 377 kts | 170° |
| 2026-05-08 11:42 | 44.14141 | 3.29153 | 16697 ft | 374 kts | 169° |
| 2026-05-08 11:43 | 44.11594 | 3.29851 | 16179 ft | 371 kts | 169° |
| 2026-05-08 11:43 | 44.09063 | 3.30544 | 15664 ft | 369 kts | 169° |
| 2026-05-08 11:43 | 44.06550 | 3.31233 | 15156 ft | 367 kts | 169° |
| 2026-05-08 11:43 | 44.04042 | 3.31919 | 14645 ft | 365 kts | 169° |
| 2026-05-08 11:44 | 44.01581 | 3.32592 | 14151 ft | 363 kts | 169° |
| 2026-05-08 11:44 | 43.99102 | 3.33270 | 13555 ft | 364 kts | 169° |
| 2026-05-08 11:44 | 43.96637 | 3.33945 | 12970 ft | 355 kts | 169° |
| 2026-05-08 11:44 | 43.95051 | 3.34379 | 12665 ft | 345 kts | 169° |
| 2026-05-08 11:45 | 43.91972 | 3.35221 | 12071 ft | 329 kts | 169° |
| 2026-05-08 11:45 | 43.90503 | 3.35622 | 11775 ft | 322 kts | 169° |
| 2026-05-08 11:45 | 43.88335 | 3.36213 | 11334 ft | 313 kts | 169° |
| 2026-05-08 11:45 | 43.86244 | 3.36904 | 10871 ft | 304 kts | 158° |
| 2026-05-08 11:46 | 43.84539 | 3.38531 | 10396 ft | 297 kts | 132° |
| 2026-05-08 11:46 | 43.83414 | 3.40887 | 10023 ft | 289 kts | 122° |
| 2026-05-08 11:46 | 43.82400 | 3.43238 | 9637 ft | 279 kts | 122° |
| 2026-05-08 11:46 | 43.81420 | 3.45518 | 9227 ft | 271 kts | 122° |
| 2026-05-08 11:47 | 43.80470 | 3.47740 | 8842 ft | 264 kts | 122° |
| 2026-05-08 11:47 | 43.79552 | 3.49892 | 8474 ft | 257 kts | 122° |
| 2026-05-08 11:47 | 43.78648 | 3.52000 | 8069 ft | 252 kts | 122° |
| 2026-05-08 11:47 | 43.77767 | 3.54057 | 7721 ft | 244 kts | 122° |
| 2026-05-08 11:48 | 43.76915 | 3.56046 | 7387 ft | 237 kts | 122° |
| 2026-05-08 11:48 | 43.76094 | 3.57959 | 7056 ft | 231 kts | 123° |
| 2026-05-08 11:48 | 43.75284 | 3.59848 | 6755 ft | 226 kts | 122° |
| 2026-05-08 11:48 | 43.74491 | 3.61699 | 6443 ft | 222 kts | 123° |
| 2026-05-08 11:49 | 43.73711 | 3.63516 | 6092 ft | 214 kts | 123° |
| 2026-05-08 11:49 | 43.72967 | 3.65253 | 5766 ft | 205 kts | 123° |
| 2026-05-08 11:49 | 43.72254 | 3.66918 | 5450 ft | 197 kts | 123° |
| 2026-05-08 11:49 | 43.71567 | 3.68517 | 5164 ft | 189 kts | 123° |
| 2026-05-08 11:50 | 43.70917 | 3.70034 | 4898 ft | 182 kts | 123° |
| 2026-05-08 11:50 | 43.70262 | 3.71556 | 4638 ft | 186 kts | 124° |
| 2026-05-08 11:50 | 43.69599 | 3.73097 | 4397 ft | 186 kts | 123° |
| 2026-05-08 11:50 | 43.68939 | 3.74634 | 4116 ft | 186 kts | 123° |
| 2026-05-08 11:51 | 43.68288 | 3.76144 | 3837 ft | 180 kts | 124° |
| 2026-05-08 11:51 | 43.67624 | 3.77576 | 3594 ft | 176 kts | 128° |
| 2026-05-08 11:51 | 43.66914 | 3.78964 | 3345 ft | 177 kts | 127° |
| 2026-05-08 11:51 | 43.66235 | 3.80328 | 3039 ft | 166 kts | 126° |
| 2026-05-08 11:52 | 43.65603 | 3.81592 | 2800 ft | 155 kts | 128° |
| 2026-05-08 11:52 | 43.65003 | 3.82776 | 2544 ft | 147 kts | 127° |
| 2026-05-08 11:52 | 43.64447 | 3.83906 | 2324 ft | 143 kts | 127° |
| 2026-05-08 11:52 | 43.63885 | 3.85025 | 2117 ft | 140 kts | 127° |
| 2026-05-08 11:53 | 43.63334 | 3.86142 | 1882 ft | 141 kts | 128° |
| 2026-05-08 11:53 | 43.62771 | 3.87262 | 1663 ft | 142 kts | 127° |
| 2026-05-08 11:53 | 43.62212 | 3.88382 | 1404 ft | 141 kts | 127° |
| 2026-05-08 11:53 | 43.61663 | 3.89482 | 1195 ft | 140 kts | 127° |
| 2026-05-08 11:54 | 43.61115 | 3.90577 | 972 ft | 138 kts | 126° |
| 2026-05-08 11:54 | 43.60569 | 3.91668 | 764 ft | 139 kts | 127° |
| 2026-05-08 11:54 | 43.60024 | 3.92759 | 567 ft | 137 kts | 127° |
| 2026-05-08 11:54 | 43.59479 | 3.93841 | 359 ft | 139 kts | 127° |
| 2026-05-08 11:55 | 43.58926 | 3.94940 | 159 ft | 139 kts | 127° |
| 2026-05-08 11:55 | 43.58385 | 3.96024 | 30 ft | 129 kts | 127° |
| 2026-05-08 11:55 | 43.58002 | 3.96782 | 25 ft | 71 kts | 125° |
| 2026-05-08 11:55 | 43.57758 | 3.97265 | 24 ft | 59 kts | 124° |
| 2026-05-08 11:56 | 43.57529 | 3.97720 | 22 ft | 56 kts | 125° |
| 2026-05-08 11:56 | 43.57342 | 3.98091 | 19 ft | 21 kts | 125° |
| 2026-05-08 11:56 | 43.57227 | 3.98154 | 18 ft | 21 kts | 209° |
| 2026-05-08 11:56 | 43.57197 | 3.97978 | 19 ft | 23 kts | 304° |
| 2026-05-08 11:57 | 43.57294 | 3.97786 | 18 ft | 26 kts | 304° |
| 2026-05-08 11:57 | 43.57400 | 3.97577 | 23 ft | 28 kts | 306° |
| 2026-05-08 11:57 | 43.57513 | 3.97351 | 28 ft | 29 kts | 304° |
| 2026-05-08 11:57 | 43.57636 | 3.97105 | 25 ft | 33 kts | 305° |
| 2026-05-08 11:58 | 43.57776 | 3.96828 | 21 ft | 37 kts | 304° |
| 2026-05-08 11:58 | 43.57925 | 3.96529 | 24 ft | 38 kts | 305° |
| 2026-05-08 11:58 | 43.58035 | 3.96313 | 25 ft | 12 kts | 303° |
| 2026-05-08 11:59 | 43.57972 | 3.96123 | 26 ft | 12 kts | 299° |
| 2026-05-08 11:59 | 43.58023 | 3.96020 | 25 ft | 15 kts | 305° |
| 2026-05-08 11:59 | 43.58049 | 3.95909 | 24 ft | 5 kts | 248° |
| 2026-05-08 11:59 | 43.58019 | 3.95870 | 25 ft | 7 kts | 214° |
| 2026-05-08 12:00 | 43.58007 | 3.95859 | 27 ft | 0 kts | 214° |